createdAt,value
2022-12-04T00:00:36.580Z,59.86
2022-12-04T00:03:07.919Z,60.87
2022-12-04T00:05:39.324Z,61.65
2022-12-04T00:08:10.763Z,62.07
2022-12-04T00:10:45.927Z,62.60
2022-12-04T00:13:17.430Z,63.10
2022-12-04T00:15:49.387Z,63.52
2022-12-04T00:18:20.848Z,63.13
2022-12-04T00:20:52.159Z,64.50
2022-12-04T00:23:23.490Z,64.57
2022-12-04T00:25:54.936Z,64.76
2022-12-04T00:28:26.595Z,65.27
2022-12-04T00:30:57.853Z,64.09
2022-12-04T00:33:29.184Z,66.08
2022-12-04T00:36:02.095Z,62.94
2022-12-04T00:38:35.906Z,61.98
2022-12-04T00:41:07.696Z,62.31
2022-12-04T00:43:38.957Z,62.64
2022-12-04T00:46:10.842Z,61.98
2022-12-04T00:48:41.697Z,65.54
2022-12-04T00:51:16.081Z,62.20
2022-12-04T00:53:47.503Z,62.95
2022-12-04T00:56:24.871Z,62.36
2022-12-04T00:59:01.454Z,62.89
2022-12-04T01:01:33.433Z,63.22
2022-12-04T01:04:04.683Z,65.40
2022-12-04T01:06:37.351Z,62.94
2022-12-04T01:09:08.942Z,63.62
2022-12-04T01:11:40.262Z,65.46
2022-12-04T01:14:11.539Z,63.30
2022-12-04T01:16:43.238Z,63.27
2022-12-04T01:19:15.199Z,65.28
2022-12-04T01:21:46.500Z,63.87
2022-12-04T01:24:17.834Z,63.55
2022-12-04T01:26:49.220Z,63.54
2022-12-04T01:29:20.703Z,63.38
2022-12-04T01:31:52.167Z,63.76
2022-12-04T01:34:23.637Z,67.24
2022-12-04T01:36:54.984Z,67.64
2022-12-04T01:39:26.294Z,67.68
2022-12-04T01:41:57.584Z,68.29
2022-12-04T01:44:29.429Z,68.26
2022-12-04T01:47:03.061Z,68.18
2022-12-04T01:49:39.052Z,66.61
2022-12-04T01:52:29.075Z,66.65
2022-12-04T01:55:03.130Z,66.96
2022-12-04T01:57:35.188Z,67.28
2022-12-04T02:00:08.452Z,68.79
2022-12-04T02:02:43.146Z,67.85
2022-12-04T02:05:17.724Z,67.92
2022-12-04T02:07:51.772Z,68.17
2022-12-04T02:10:26.123Z,68.48
2022-12-04T02:13:28.667Z,68.80
2022-12-04T02:16:19.951Z,67.31
2022-12-04T02:19:03.494Z,65.98
2022-12-04T02:21:45.875Z,65.73
2022-12-04T02:25:07.950Z,65.78
2022-12-04T02:27:42.152Z,64.95
2022-12-04T02:30:17.636Z,65.58
2022-12-04T02:33:14.743Z,65.03
2022-12-04T02:35:52.079Z,65.15
2022-12-04T02:38:28.887Z,64.87
2022-12-04T02:41:15.783Z,65.27
2022-12-04T02:43:52.218Z,64.71
2022-12-04T02:46:30.593Z,64.33
2022-12-04T02:49:05.312Z,64.57
2022-12-04T02:51:39.368Z,64.42
2022-12-04T02:54:19.173Z,64.14
2022-12-04T02:56:53.566Z,64.19
2022-12-04T02:59:39.025Z,63.88
2022-12-04T03:02:27.198Z,64.33
2022-12-04T03:05:02.624Z,64.19
2022-12-04T03:07:40.561Z,63.67
2022-12-04T03:10:20.699Z,63.79
2022-12-04T03:13:05.213Z,63.61
2022-12-04T03:15:50.261Z,63.96
2022-12-04T03:18:30.651Z,63.90
2022-12-04T03:21:10.661Z,64.03
2022-12-04T03:23:56.965Z,64.48
2022-12-04T03:26:38.998Z,64.23
2022-12-04T03:29:19.046Z,63.63
2022-12-04T03:32:02.809Z,63.68
2022-12-04T03:35:01.324Z,64.13
2022-12-04T03:38:04.941Z,64.34
2022-12-04T03:41:04.919Z,64.47
2022-12-04T03:43:50.194Z,64.29
2022-12-04T03:46:33.254Z,63.99
2022-12-04T03:49:31.242Z,63.87
2022-12-04T03:52:21.495Z,64.04
2022-12-04T03:55:12.915Z,64.44
2022-12-04T03:57:47.371Z,63.61
2022-12-04T04:00:23.939Z,63.97
2022-12-04T04:03:02.029Z,64.15
2022-12-04T04:05:35.183Z,63.88
2022-12-04T04:08:28.533Z,63.99
2022-12-04T04:11:07.172Z,64.22
2022-12-04T04:14:06.562Z,64.49
2022-12-04T04:17:00.287Z,63.88
2022-12-04T04:19:52.719Z,63.80
2022-12-04T04:22:45.310Z,63.98
2022-12-04T04:25:21.143Z,63.98
2022-12-04T04:28:00.480Z,64.55
2022-12-04T04:30:34.814Z,64.10
2022-12-04T04:33:18.571Z,64.37
2022-12-04T04:35:59.221Z,63.69
2022-12-04T04:38:58.025Z,64.08
2022-12-04T04:41:35.195Z,63.85
2022-12-04T04:44:11.571Z,63.46
2022-12-04T04:46:49.846Z,63.60
2022-12-04T04:49:25.359Z,63.45
2022-12-04T04:51:57.105Z,63.30
2022-12-04T04:54:30.793Z,62.94
2022-12-04T04:57:02.140Z,63.20
2022-12-04T04:59:33.530Z,62.96
2022-12-04T05:02:04.997Z,63.10
2022-12-04T05:04:36.308Z,62.86
2022-12-04T05:07:07.591Z,62.78
2022-12-04T05:09:41.390Z,62.63
2022-12-04T05:12:12.992Z,62.71
2022-12-04T05:14:44.304Z,62.98
2022-12-04T05:17:15.755Z,62.84
2022-12-04T05:19:56.509Z,63.61
2022-12-04T05:22:30.109Z,63.62
2022-12-04T05:25:01.672Z,64.12
2022-12-04T05:27:34.217Z,64.24
2022-12-04T05:30:06.769Z,64.41
2022-12-04T05:32:38.285Z,64.50
2022-12-04T05:35:11.526Z,64.71
2022-12-04T05:37:43.537Z,65.02
2022-12-04T05:40:15.181Z,64.75
2022-12-04T05:42:46.317Z,66.15
2022-12-04T05:45:17.781Z,65.54
2022-12-04T05:47:49.328Z,65.16
2022-12-04T05:50:20.809Z,65.38
2022-12-04T05:52:51.940Z,65.64
2022-12-04T05:55:23.110Z,65.66
2022-12-04T05:57:54.344Z,65.37
2022-12-04T06:00:29.313Z,65.41
2022-12-04T06:03:00.058Z,65.68
2022-12-04T06:05:31.308Z,64.96
2022-12-04T06:08:02.654Z,65.47
2022-12-04T06:10:34.061Z,65.21
2022-12-04T06:13:10.446Z,65.20
2022-12-04T06:15:42.932Z,65.52
2022-12-04T06:18:14.872Z,65.50
2022-12-04T06:20:46.174Z,65.18
2022-12-04T06:23:17.509Z,64.85
2022-12-04T06:25:48.779Z,64.75
2022-12-04T06:28:20.763Z,64.70
2022-12-04T06:30:52.013Z,65.33
2022-12-04T06:33:23.319Z,65.06
2022-12-04T06:36:01.587Z,64.80
2022-12-04T06:38:33.325Z,64.90
2022-12-04T06:41:13.295Z,64.69
2022-12-04T06:43:45.123Z,64.41
2022-12-04T06:46:20.452Z,64.59
2022-12-04T06:48:52.762Z,64.42
2022-12-04T06:51:27.333Z,64.31
2022-12-04T06:53:59.172Z,64.06
2022-12-04T06:56:33.845Z,64.15
2022-12-04T06:59:06.456Z,64.17
2022-12-04T07:01:38.361Z,64.13
2022-12-04T07:04:10.174Z,64.07
2022-12-04T07:06:41.870Z,64.02
2022-12-04T07:09:17.959Z,63.75
2022-12-04T07:11:49.634Z,63.46
2022-12-04T07:14:20.937Z,63.62
2022-12-04T07:16:53.100Z,63.62
2022-12-04T07:19:25.828Z,63.48
2022-12-04T07:21:57.297Z,63.30
2022-12-04T07:24:28.406Z,63.80
2022-12-04T07:26:59.552Z,63.21
2022-12-04T07:29:31.034Z,63.10
2022-12-04T07:32:02.724Z,63.09
2022-12-04T07:34:34.344Z,62.94
2022-12-04T07:37:05.992Z,62.93
2022-12-04T07:39:37.374Z,62.68
2022-12-04T07:42:08.652Z,62.59
2022-12-04T07:44:40.225Z,62.52
2022-12-04T07:47:11.837Z,62.17
2022-12-04T07:49:43.404Z,62.16
2022-12-04T07:52:15.057Z,61.78
2022-12-04T07:54:46.382Z,61.84
2022-12-04T07:57:17.768Z,61.81
2022-12-04T07:59:49.162Z,61.54
2022-12-04T08:02:21.949Z,61.78
2022-12-04T08:04:53.476Z,61.37
2022-12-04T08:07:24.844Z,61.39
2022-12-04T08:09:56.957Z,61.23
2022-12-04T08:12:27.794Z,61.99
2022-12-04T08:14:58.947Z,61.26
2022-12-04T08:17:30.362Z,61.11
2022-12-04T08:20:03.251Z,61.06
2022-12-04T08:22:34.942Z,61.04
2022-12-04T08:25:06.399Z,60.79
2022-12-04T08:27:38.015Z,60.78
2022-12-04T08:30:10.273Z,60.65
2022-12-04T08:32:41.158Z,61.10
2022-12-04T08:35:13.002Z,60.95
2022-12-04T08:37:44.436Z,60.89
2022-12-04T08:40:16.248Z,60.67
2022-12-04T08:42:47.539Z,60.47
2022-12-04T08:45:18.967Z,60.64
2022-12-04T08:47:52.607Z,60.34
2022-12-04T08:50:24.061Z,60.34
2022-12-04T08:52:55.330Z,60.26
2022-12-04T08:55:26.702Z,60.28
2022-12-04T08:57:57.975Z,60.26
2022-12-04T09:00:29.244Z,59.94
2022-12-04T09:03:00.727Z,59.98
2022-12-04T09:05:32.582Z,60.09
2022-12-04T09:08:03.927Z,60.30
2022-12-04T09:10:37.373Z,59.71
2022-12-04T09:13:08.987Z,59.85
2022-12-04T09:15:43.428Z,59.76
2022-12-04T09:18:14.688Z,59.86
2022-12-04T09:20:45.907Z,60.15
2022-12-04T09:23:17.102Z,59.91
2022-12-04T09:25:48.295Z,60.01
2022-12-04T09:28:19.664Z,59.90
2022-12-04T09:31:05.712Z,59.70
2022-12-04T09:33:37.206Z,59.86
2022-12-04T09:36:08.464Z,60.35
2022-12-04T09:38:39.658Z,59.93
2022-12-04T09:41:22.850Z,59.81
2022-12-04T09:44:18.338Z,59.48
2022-12-04T09:47:11.698Z,59.63
2022-12-04T09:49:51.826Z,59.51
2022-12-04T09:52:33.317Z,59.49
2022-12-04T09:55:07.561Z,59.45
2022-12-04T09:57:46.505Z,59.34
2022-12-04T10:00:21.428Z,59.35
2022-12-04T10:03:05.107Z,59.78
2022-12-04T10:06:00.120Z,59.66
2022-12-04T10:08:37.522Z,59.83
2022-12-04T10:11:16.125Z,59.83
2022-12-04T10:14:18.093Z,59.76
2022-12-04T10:17:16.770Z,59.75
2022-12-04T10:20:09.187Z,59.90
2022-12-04T10:23:15.244Z,60.01
2022-12-04T10:25:46.654Z,59.83
2022-12-04T10:28:36.392Z,60.04
2022-12-04T10:31:16.318Z,59.84
2022-12-04T10:34:07.507Z,59.82
2022-12-04T10:36:38.809Z,60.14
2022-12-04T10:39:23.620Z,60.34
2022-12-04T10:42:08.339Z,60.20
2022-12-04T10:44:41.235Z,60.45
2022-12-04T10:47:14.553Z,60.67
2022-12-04T10:49:46.244Z,60.32
2022-12-04T10:52:17.581Z,60.71
2022-12-04T10:55:02.541Z,60.35
2022-12-04T10:57:42.666Z,60.18
2022-12-04T11:00:35.726Z,60.71
2022-12-04T11:03:24.561Z,60.56
2022-12-04T11:06:16.173Z,60.38
2022-12-04T11:08:53.510Z,60.40
2022-12-04T11:11:51.565Z,60.79
2022-12-04T11:14:25.030Z,60.46
2022-12-04T11:17:06.132Z,60.60
2022-12-04T11:19:38.099Z,60.52
2022-12-04T11:22:18.157Z,60.55
2022-12-04T11:25:00.463Z,60.63
2022-12-04T11:27:35.904Z,60.36
2022-12-04T11:30:16.819Z,60.66
2022-12-04T11:32:49.299Z,60.70
2022-12-04T11:35:26.923Z,60.56
2022-12-04T11:38:16.438Z,60.47
2022-12-04T11:40:57.158Z,60.41
2022-12-04T11:43:34.603Z,60.43
2022-12-04T11:46:08.547Z,60.56
2022-12-04T11:48:48.620Z,60.79
2022-12-04T11:51:35.892Z,61.09
2022-12-04T11:54:31.985Z,61.26
2022-12-04T11:57:30.720Z,61.02
2022-12-04T12:00:17.265Z,61.04
2022-12-04T12:03:18.263Z,61.21
2022-12-04T12:05:55.432Z,60.97
2022-12-04T12:08:51.338Z,61.32
2022-12-04T12:11:35.770Z,61.06
2022-12-04T12:14:54.644Z,61.61
2022-12-04T12:17:39.544Z,61.38
2022-12-04T12:20:16.348Z,61.20
2022-12-04T12:22:54.506Z,61.36
2022-12-04T12:25:31.699Z,61.29
2022-12-04T12:28:21.287Z,61.56
2022-12-04T12:31:11.291Z,61.68
2022-12-04T12:34:08.997Z,61.83
2022-12-04T12:36:56.485Z,61.77
2022-12-04T12:39:43.347Z,61.87
2022-12-04T12:42:27.609Z,61.90
2022-12-04T12:45:04.918Z,61.89
2022-12-04T12:47:43.807Z,61.58
2022-12-04T12:50:30.357Z,61.49
2022-12-04T12:53:09.948Z,61.83
2022-12-04T12:55:53.115Z,61.50
2022-12-04T12:58:36.343Z,62.01
2022-12-04T13:01:21.130Z,62.04
2022-12-04T13:04:15.840Z,61.76
2022-12-04T13:06:53.440Z,61.99
2022-12-04T13:09:33.357Z,62.04
2022-12-04T13:12:13.604Z,61.89
2022-12-04T13:14:49.061Z,62.54
2022-12-04T13:17:34.342Z,63.10
2022-12-04T13:20:13.500Z,63.84
2022-12-04T13:23:02.967Z,64.69
2022-12-04T13:25:46.596Z,64.48
2022-12-04T13:28:42.387Z,65.29
2022-12-04T13:31:31.333Z,65.30
2022-12-04T13:34:21.381Z,65.55
2022-12-04T13:37:39.885Z,65.91
2022-12-04T13:40:20.300Z,66.24
2022-12-04T13:42:51.566Z,66.17
2022-12-04T13:45:33.888Z,66.03
2022-12-04T13:48:05.970Z,66.69
2022-12-04T13:50:37.524Z,66.72
2022-12-04T13:53:28.636Z,65.14
2022-12-04T13:56:06.080Z,63.65
2022-12-04T13:58:39.234Z,62.66
2022-12-04T14:01:26.609Z,62.26
2022-12-04T14:03:58.848Z,61.20
2022-12-04T14:06:37.448Z,60.20
2022-12-04T14:09:21.641Z,59.99
2022-12-04T14:11:59.657Z,58.99
2022-12-04T14:14:37.887Z,58.62
2022-12-04T14:17:26.830Z,58.28
2022-12-04T14:20:04.401Z,57.79
2022-12-04T14:22:45.591Z,57.02
2022-12-04T14:25:16.547Z,56.64
2022-12-04T14:27:56.147Z,55.96
2022-12-04T14:30:41.142Z,56.45
2022-12-04T14:33:27.206Z,55.73
2022-12-04T14:36:26.437Z,55.33
2022-12-04T14:39:10.027Z,54.68
2022-12-04T14:41:41.327Z,54.06
2022-12-04T14:44:32.413Z,53.89
2022-12-04T14:47:46.291Z,54.13
2022-12-04T14:50:44.722Z,53.49
2022-12-04T14:53:27.857Z,53.16
2022-12-04T14:56:26.761Z,52.75
2022-12-04T14:58:59.537Z,52.74
2022-12-04T15:01:39.889Z,52.34
2022-12-04T15:04:34.659Z,52.00
2022-12-04T15:07:06.745Z,52.30
2022-12-04T15:09:55.138Z,51.50
2022-12-04T15:12:36.225Z,51.12
2022-12-04T15:15:27.087Z,51.34
2022-12-04T15:18:06.032Z,50.63
2022-12-04T15:21:06.780Z,50.92
2022-12-04T15:23:43.964Z,50.66
2022-12-04T15:26:19.677Z,53.15
2022-12-04T15:28:52.416Z,52.81
2022-12-04T15:31:31.458Z,52.16
2022-12-04T15:34:11.584Z,51.16
2022-12-04T15:37:04.906Z,51.24
2022-12-04T15:39:39.323Z,50.58
2022-12-04T15:42:23.766Z,50.05
2022-12-04T15:45:04.145Z,49.32
2022-12-04T15:47:40.744Z,49.12
2022-12-04T15:50:17.758Z,49.49
2022-12-04T15:52:55.849Z,48.71
2022-12-04T15:55:28.656Z,48.69
2022-12-04T15:58:09.530Z,48.39
2022-12-04T16:00:44.016Z,48.47
2022-12-04T16:03:36.963Z,47.84
2022-12-04T16:06:30.467Z,47.21
2022-12-04T16:09:28.701Z,46.96
2022-12-04T16:12:02.527Z,47.16
2022-12-04T16:14:33.786Z,47.35
2022-12-04T16:17:06.496Z,47.33
2022-12-04T16:19:43.595Z,47.33
2022-12-04T16:22:22.179Z,46.70
2022-12-04T16:24:54.453Z,46.85
2022-12-04T16:27:27.624Z,46.80
2022-12-04T16:29:59.395Z,46.65
2022-12-04T16:32:34.126Z,46.14
2022-12-04T16:35:05.716Z,46.54
2022-12-04T16:37:37.013Z,47.22
2022-12-04T16:40:08.988Z,46.02
2022-12-04T16:42:41.241Z,45.59
2022-12-04T16:45:28.510Z,45.72
2022-12-04T16:47:59.968Z,46.36
2022-12-04T16:50:31.493Z,45.36
2022-12-04T16:53:02.947Z,46.11
2022-12-04T16:55:41.328Z,45.39
2022-12-04T16:58:12.664Z,45.06
2022-12-04T17:00:45.889Z,45.21
2022-12-04T17:03:23.705Z,45.02
2022-12-04T17:05:55.513Z,45.21
2022-12-04T17:08:27.390Z,45.27
2022-12-04T17:10:58.717Z,45.34
2022-12-04T17:13:30.169Z,45.42
2022-12-04T17:16:01.555Z,45.64
2022-12-04T17:18:33.212Z,44.66
2022-12-04T17:21:09.981Z,44.97
2022-12-04T17:23:41.959Z,45.02
2022-12-04T17:26:15.911Z,44.74
2022-12-04T17:28:47.293Z,44.30
2022-12-04T17:31:21.596Z,44.54
2022-12-04T17:33:53.502Z,44.51
2022-12-04T17:36:28.965Z,44.59
2022-12-04T17:39:05.170Z,44.72
2022-12-04T17:41:36.446Z,44.37
2022-12-04T17:44:07.906Z,45.28
2022-12-04T17:46:39.270Z,44.27
2022-12-04T17:49:10.733Z,44.53
2022-12-04T17:51:42.742Z,44.60
2022-12-04T17:54:14.774Z,45.18
2022-12-04T17:56:49.525Z,44.05
2022-12-04T17:59:23.788Z,44.45
2022-12-04T18:01:55.485Z,44.70
2022-12-04T18:04:26.914Z,44.74
2022-12-04T18:06:58.163Z,44.40
2022-12-04T18:09:29.546Z,43.98
2022-12-04T18:12:03.011Z,44.64
2022-12-04T18:14:35.906Z,44.59
2022-12-04T18:17:07.252Z,43.48
2022-12-04T18:19:39.320Z,43.57
2022-12-04T18:22:10.541Z,43.59
2022-12-04T18:24:41.936Z,44.22
2022-12-04T18:27:13.692Z,44.02
2022-12-04T18:29:45.212Z,43.88
2022-12-04T18:32:16.563Z,43.20
2022-12-04T18:34:48.328Z,43.21
2022-12-04T18:37:19.855Z,43.59
2022-12-04T18:39:52.516Z,43.48
2022-12-04T18:42:23.748Z,44.08
2022-12-04T18:44:54.906Z,43.22
2022-12-04T18:47:28.263Z,44.06
2022-12-04T18:49:59.841Z,43.34
2022-12-04T18:52:36.320Z,43.74
2022-12-04T18:55:07.955Z,43.11
2022-12-04T18:57:39.908Z,43.62
2022-12-04T19:00:11.697Z,43.93
2022-12-04T19:02:43.195Z,43.45
2022-12-04T19:05:15.190Z,43.31
2022-12-04T19:07:46.985Z,43.61
2022-12-04T19:10:18.670Z,43.37
2022-12-04T19:12:49.944Z,43.95
2022-12-04T19:15:22.694Z,43.12
2022-12-04T19:17:53.925Z,42.94
2022-12-04T19:20:25.390Z,42.84
2022-12-04T19:22:56.594Z,43.08
2022-12-04T19:25:28.022Z,43.00
2022-12-04T19:27:59.990Z,42.79
2022-12-04T19:30:34.424Z,42.64
2022-12-04T19:33:06.084Z,43.29
2022-12-04T19:35:37.847Z,43.14
2022-12-04T19:38:09.129Z,42.77
2022-12-04T19:40:40.627Z,42.89
2022-12-04T19:43:12.313Z,42.64
2022-12-04T19:45:50.834Z,42.57
2022-12-04T19:48:22.192Z,42.42
2022-12-04T19:50:53.526Z,42.36
2022-12-04T19:53:24.836Z,42.78
2022-12-04T19:55:56.146Z,42.68
2022-12-04T19:58:30.116Z,42.89
2022-12-04T20:01:01.568Z,42.40
2022-12-04T20:03:32.930Z,42.49
2022-12-04T20:06:12.670Z,42.08
2022-12-04T20:08:44.869Z,42.91
2022-12-04T20:11:19.701Z,42.74
2022-12-04T20:13:51.412Z,43.05
2022-12-04T20:16:23.213Z,42.64
2022-12-04T20:18:55.654Z,42.98
2022-12-04T20:21:31.700Z,42.95
2022-12-04T20:24:05.443Z,42.29
2022-12-04T20:26:40.415Z,42.51
2022-12-04T20:29:14.748Z,42.13
2022-12-04T20:31:47.617Z,42.03
2022-12-04T20:34:21.172Z,42.58
2022-12-04T20:36:52.731Z,42.12
2022-12-04T20:39:24.163Z,42.61
2022-12-04T20:41:55.703Z,42.75
2022-12-04T20:44:26.987Z,42.33
2022-12-04T20:47:00.062Z,42.14
2022-12-04T20:49:31.419Z,42.36
2022-12-04T20:52:02.669Z,42.51
2022-12-04T20:54:40.781Z,41.91
2022-12-04T20:57:13.018Z,41.86
2022-12-04T20:59:44.675Z,41.61
2022-12-04T21:02:16.191Z,41.93
2022-12-04T21:04:47.531Z,41.67
2022-12-04T21:07:18.983Z,41.75
2022-12-04T21:09:50.328Z,42.34
2022-12-04T21:12:43.191Z,42.22
2022-12-04T21:15:32.954Z,42.12
2022-12-04T21:18:04.640Z,41.77
2022-12-04T21:20:35.973Z,41.49
2022-12-04T21:23:07.158Z,41.77
2022-12-04T21:25:39.045Z,41.84
2022-12-04T21:28:10.242Z,41.57
2022-12-04T21:30:41.420Z,42.05
2022-12-04T21:33:12.848Z,41.52
2022-12-04T21:35:44.490Z,42.24
2022-12-04T21:38:15.719Z,41.68
2022-12-04T21:40:50.943Z,41.19
2022-12-04T21:43:22.811Z,41.38
2022-12-04T21:46:05.843Z,41.60
2022-12-04T21:48:40.224Z,41.81
2022-12-04T21:51:32.726Z,41.65
2022-12-04T21:54:03.122Z,41.67
2022-12-04T21:56:34.619Z,41.51
2022-12-04T21:59:06.709Z,41.69
2022-12-04T22:01:38.441Z,41.53
2022-12-04T22:04:09.871Z,41.98
2022-12-04T22:06:41.404Z,41.53
2022-12-04T22:09:14.634Z,41.24
2022-12-04T22:11:46.689Z,41.20
2022-12-04T22:14:17.957Z,40.97
2022-12-04T22:16:52.213Z,41.48
2022-12-04T22:19:23.552Z,41.39
2022-12-04T22:21:55.032Z,41.25
2022-12-04T22:24:26.783Z,41.38
2022-12-04T22:26:58.164Z,41.19
2022-12-04T22:32:21.834Z,40.93
2022-12-04T22:34:52.775Z,41.50
2022-12-04T22:37:26.052Z,40.99
2022-12-04T22:39:57.581Z,41.29
2022-12-04T22:42:29.684Z,45.86
2022-12-04T22:45:01.592Z,51.57
2022-12-04T22:47:39.431Z,56.53
2022-12-04T22:50:11.799Z,57.89
2022-12-04T22:52:43.528Z,60.33
2022-12-04T22:55:15.150Z,61.42
2022-12-04T22:57:46.883Z,62.86
2022-12-04T23:00:18.302Z,63.45
2022-12-04T23:02:49.669Z,62.06
2022-12-04T23:05:20.968Z,60.83
2022-12-04T23:07:52.316Z,61.18
2022-12-04T23:10:23.860Z,60.28
2022-12-04T23:12:55.151Z,60.80
2022-12-04T23:15:26.518Z,59.94
2022-12-04T23:17:57.789Z,60.16
2022-12-04T23:20:29.235Z,60.49
2022-12-04T23:23:01.114Z,61.57
2022-12-04T23:25:32.351Z,62.83
2022-12-04T23:28:03.584Z,63.20
2022-12-04T23:30:36.745Z,63.80
2022-12-04T23:33:08.514Z,64.09
2022-12-04T23:35:40.204Z,64.38
2022-12-04T23:38:11.518Z,64.38
2022-12-04T23:40:42.882Z,64.83
2022-12-04T23:43:14.217Z,64.91
2022-12-04T23:45:46.545Z,65.20
2022-12-04T23:48:18.019Z,66.24
2022-12-04T23:50:49.316Z,67.27
2022-12-04T23:53:20.741Z,68.21
2022-12-04T23:56:13.371Z,68.50
2022-12-04T23:58:45.713Z,69.21
